Time;durP1;ratioP1;P1;durP2;ratioP2;P2;SDS_P1;SDS_P2;PMS_P1;PMS_P2;Temp;Humidity;BMP_temperature;BMP_pressure;BME280_temperature;BME280_humidity;BME280_pressure;Samples;Min_cycle;Max_cycle;Signal;HPM_P1;HPM_P2
2021/10/07 00:01:47;;;;;;;11.00;7.30;;;9.10;99.90;;;;;;5013251;28;20073;-86
2021/10/07 00:04:13;;;;;;;15.82;6.00;;;7.90;99.90;;;;;;4994459;28;20120;-88
2021/10/07 00:06:39;;;;;;;10.23;5.85;;;7.80;99.90;;;;;;4994945;28;20042;-91
2021/10/07 00:09:06;;;;;;;8.40;5.28;;;7.90;99.90;;;;;;4976523;28;20437;-91
2021/10/07 00:11:32;;;;;;;6.20;5.40;;;7.80;99.90;;;;;;4977021;28;20069;-89
2021/10/07 00:13:59;;;;;;;6.72;5.82;;;8.40;99.90;;;;;;4977893;28;20188;-92
2021/10/07 00:16:25;;;;;;;10.35;7.28;;;7.80;99.90;;;;;;4973709;28;20445;-86
2021/10/07 00:18:52;;;;;;;7.68;5.30;;;7.90;99.90;;;;;;4975675;28;20038;-88
2021/10/07 00:25:14;;;;;;;10.60;6.03;;;7.70;99.90;;;;;;5006715;28;20039;-86
2021/10/07 00:27:39;;;;;;;7.13;5.35;;;8.40;99.90;;;;;;4979061;28;20555;-86
2021/10/07 00:30:16;;;;;;;7.68;5.50;;;7.70;99.90;;;;;;4971437;28;20203;-89
2021/10/07 00:35:47;;;;;;;8.45;5.60;;;8.30;99.90;;;;;;4991571;28;20038;-84
2021/10/07 00:40:56;;;;;;;7.47;5.95;;;7.60;99.90;;;;;;4993678;28;20050;-91
2021/10/07 00:43:22;;;;;;;11.45;8.73;;;8.20;99.90;;;;;;4992606;28;20141;-87
2021/10/07 00:45:59;;;;;;;8.77;6.75;;;8.20;99.90;;;;;;4981447;28;20084;-86
2021/10/07 00:48:25;;;;;;;6.47;5.88;;;7.70;99.90;;;;;;4986866;28;20049;-88
2021/10/07 00:50:51;;;;;;;7.38;5.78;;;7.50;99.90;;;;;;4994235;28;20064;-87
2021/10/07 00:57:00;;;;;;;11.25;6.03;;;7.40;99.90;;;;;;5009015;28;20491;-86
2021/10/07 00:59:26;;;;;;;6.70;5.72;;;7.30;99.90;;;;;;4975784;28;20030;-86
2021/10/07 01:01:52;;;;;;;7.13;6.43;;;8.10;99.90;;;;;;4990227;28;20374;-88
2021/10/07 01:04:18;;;;;;;9.57;6.50;;;7.80;99.90;;;;;;4995278;28;20054;-87
2021/10/07 01:10:59;;;;;;;7.88;6.32;;;7.30;99.90;;;;;;5010626;28;20029;-87
2021/10/07 01:13:25;;;;;;;9.15;6.13;;;7.30;99.90;;;;;;4988698;28;20038;-86
2021/10/07 01:15:51;;;;;;;9.35;6.22;;;7.50;99.90;;;;;;4993704;28;20158;-86
2021/10/07 01:18:16;;;;;;;7.38;5.95;;;7.20;99.90;;;;;;5002422;28;20100;-88
2021/10/07 01:20:42;;;;;;;9.30;6.18;;;7.20;99.90;;;;;;4987722;28;20081;-88
2021/10/07 01:23:08;;;;;;;8.63;5.97;;;7.20;99.90;;;;;;4993071;28;20053;-89
2021/10/07 01:25:34;;;;;;;8.63;6.07;;;7.50;99.90;;;;;;4976674;28;20679;-89
2021/10/07 01:28:00;;;;;;;7.72;6.82;;;7.20;99.90;;;;;;4990447;28;20131;-86
2021/10/07 01:30:26;;;;;;;8.52;7.32;;;7.20;99.90;;;;;;4993022;28;20056;-87
2021/10/07 01:32:57;;;;;;;10.18;7.28;;;7.20;99.90;;;;;;5010792;28;20034;-88
2021/10/07 01:35:23;;;;;;;9.15;7.57;;;7.70;99.90;;;;;;4993336;28;20390;-86
2021/10/07 01:37:49;;;;;;;10.55;7.60;;;7.20;99.90;;;;;;4991385;28;20375;-84
2021/10/07 01:40:14;;;;;;;10.77;7.88;;;6.90;99.90;;;;;;4994250;28;20057;-88
2021/10/07 01:42:42;;;;;;;10.45;6.97;;;7.80;99.90;;;;;;4991836;28;20648;-89
2021/10/07 01:45:09;;;;;;;8.05;7.00;;;7.20;99.90;;;;;;5004439;28;20076;-86
2021/10/07 01:47:34;;;;;;;8.77;7.03;;;7.10;99.90;;;;;;4992184;28;20046;-85
2021/10/07 01:50:00;;;;;;;8.80;7.35;;;7.60;99.90;;;;;;5002362;28;20132;-84
2021/10/07 01:52:27;;;;;;;9.90;6.82;;;7.80;99.90;;;;;;4997554;28;20153;-87
2021/10/07 01:54:53;;;;;;;7.63;6.22;;;7.20;99.90;;;;;;5009583;28;20113;-90
2021/10/07 01:57:18;;;;;;;8.90;5.90;;;7.30;99.90;;;;;;4976175;28;20473;-88
2021/10/07 01:59:44;;;;;;;8.00;6.00;;;7.60;99.90;;;;;;5002724;28;20444;-87
2021/10/07 02:02:10;;;;;;;7.20;6.10;;;7.40;99.90;;;;;;4976486;28;20532;-84
2021/10/07 02:04:35;;;;;;;5.75;5.15;;;7.10;99.90;;;;;;4977730;28;20063;-89
2021/10/07 02:07:01;;;;;;;5.30;4.65;;;8.00;99.90;;;;;;4976455;28;20039;-89
2021/10/07 02:09:27;;;;;;;6.65;4.32;;;7.20;99.90;;;;;;4977862;28;20389;-90
2021/10/07 02:11:53;;;;;;;5.72;4.43;;;7.90;99.90;;;;;;4979806;28;20045;-88
2021/10/07 02:14:19;;;;;;;5.25;4.50;;;7.20;99.90;;;;;;4974316;28;20048;-89
2021/10/07 02:16:45;;;;;;;18.15;4.70;;;7.20;99.90;;;;;;4970423;28;20042;-90
2021/10/07 02:19:11;;;;;;;5.82;5.13;;;7.10;99.90;;;;;;4984133;28;20046;-90
2021/10/07 02:21:39;;;;;;;5.15;4.63;;;7.70;99.90;;;;;;4973478;28;20050;-89
2021/10/07 02:24:07;;;;;;;7.88;5.20;;;7.10;99.90;;;;;;4973931;28;20046;-89
2021/10/07 02:26:33;;;;;;;22.48;5.43;;;7.20;99.90;;;;;;4975814;28;20478;-88
2021/10/07 02:28:59;;;;;;;5.95;5.35;;;7.30;99.90;;;;;;4977587;28;20105;-89
2021/10/07 02:31:25;;;;;;;6.65;5.78;;;7.60;99.90;;;;;;4973489;28;20042;-90
2021/10/07 02:33:54;;;;;;;5.60;5.00;;;7.70;99.90;;;;;;4976497;28;20069;-92
2021/10/07 02:36:19;;;;;;;7.82;4.97;;;7.60;99.90;;;;;;4978182;28;20048;-85
2021/10/07 02:38:45;;;;;;;53.55;7.28;;;7.10;99.90;;;;;;4976025;28;20042;-90
2021/10/07 02:41:11;;;;;;;13.35;6.07;;;7.10;99.90;;;;;;4973735;28;20041;-88
2021/10/07 02:43:37;;;;;;;20.38;6.63;;;7.60;99.90;;;;;;4991098;28;20049;-87
2021/10/07 02:46:02;;;;;;;11.63;6.70;;;7.00;99.90;;;;;;4986012;28;20033;-86
2021/10/07 02:48:28;;;;;;;13.15;6.25;;;7.90;99.90;;;;;;4996660;28;20046;-86
2021/10/07 02:50:54;;;;;;;6.90;6.15;;;7.70;99.90;;;;;;4981123;28;20049;-86
2021/10/07 02:53:19;;;;;;;27.65;6.95;;;7.10;99.90;;;;;;4981134;28;21326;-88
2021/10/07 02:55:45;;;;;;;6.85;6.15;;;7.10;99.90;;;;;;4973855;28;20061;-86
2021/10/07 02:58:11;;;;;;;12.75;7.50;;;7.20;99.90;;;;;;4973636;28;20161;-90
2021/10/07 03:00:37;;;;;;;7.07;6.38;;;7.30;99.90;;;;;;4991607;28;20056;-87
2021/10/07 03:03:02;;;;;;;32.65;8.00;;;8.00;99.90;;;;;;4977253;28;20045;-88
2021/10/07 03:05:28;;;;;;;7.75;6.95;;;7.40;99.90;;;;;;4985069;28;20049;-85
2021/10/07 03:08:31;;;;;;;12.55;7.47;;;6.80;99.90;;;;;;4973419;28;20454;-86
2021/10/07 03:10:58;;;;;;;34.22;8.40;;;7.40;99.90;;;;;;4993883;28;20048;-87
2021/10/07 03:13:24;;;;;;;36.90;8.35;;;7.40;99.90;;;;;;4993209;28;20418;-88
2021/10/07 03:15:50;;;;;;;10.55;7.55;;;7.40;99.90;;;;;;4974839;28;20037;-88
2021/10/07 03:18:17;;;;;;;216.60;13.68;;;7.40;99.90;;;;;;4991806;28;20109;-92
2021/10/07 03:20:43;;;;;;;46.78;9.75;;;7.90;99.90;;;;;;4988933;28;20446;-88
2021/10/07 03:23:08;;;;;;;40.00;10.10;;;7.50;99.90;;;;;;4972848;28;20193;-88
2021/10/07 03:25:34;;;;;;;44.95;9.82;;;8.20;99.90;;;;;;4959182;28;20213;-88
2021/10/07 03:28:00;;;;;;;51.33;9.38;;;7.90;99.90;;;;;;4967159;28;20046;-91
2021/10/07 03:30:26;;;;;;;41.55;9.15;;;7.50;99.90;;;;;;4968803;28;20172;-87
2021/10/07 03:32:52;;;;;;;37.17;8.63;;;7.50;99.90;;;;;;4977535;28;20113;-87
2021/10/07 03:35:17;;;;;;;127.13;14.05;;;7.50;99.90;;;;;;4963819;28;20112;-87
2021/10/07 03:37:43;;;;;;;39.33;10.93;;;7.50;99.90;;;;;;4960734;28;20039;-89
2021/10/07 03:40:10;;;;;;;47.95;10.70;;;8.30;99.90;;;;;;4964150;28;20478;-87
2021/10/07 03:42:37;;;;;;;283.50;19.38;;;7.40;99.90;;;;;;4982331;28;20042;-91
2021/10/07 03:45:05;;;;;;;35.05;10.35;;;7.40;99.90;;;;;;4981183;28;20458;-93
2021/10/07 03:47:31;;;;;;;141.55;15.52;;;7.50;99.90;;;;;;4980917;28;20822;-89
2021/10/07 03:49:57;;;;;;;46.03;10.55;;;7.10;99.90;;;;;;4962136;28;20058;-89
2021/10/07 03:52:24;;;;;;;45.25;12.32;;;8.10;99.90;;;;;;4967513;28;20500;-91
2021/10/07 03:54:51;;;;;;;23.10;12.52;;;7.60;99.90;;;;;;4968793;28;20120;-88
2021/10/07 03:57:17;;;;;;;106.05;17.08;;;8.30;99.90;;;;;;4957324;28;20046;-88
2021/10/07 03:59:54;;;;;;;198.75;18.50;;;7.70;99.90;;;;;;4960467;28;20034;-88
2021/10/07 04:02:49;;;;;;;47.30;14.45;;;7.70;99.90;;;;;;4979676;28;20477;-85
2021/10/07 04:05:29;;;;;;;88.57;16.17;;;7.70;99.90;;;;;;4923848;29;20062;-90
2021/10/07 04:07:55;;;;;;;98.35;16.15;;;7.80;99.90;;;;;;4931651;29;20055;-87
2021/10/07 04:10:21;;;;;;;22.13;13.65;;;7.90;99.90;;;;;;4931235;29;20047;-87
2021/10/07 04:12:47;;;;;;;48.15;15.13;;;7.90;99.90;;;;;;4936922;29;20043;-86
2021/10/07 04:15:13;;;;;;;33.10;14.85;;;8.50;99.90;;;;;;4935367;28;20055;-86
2021/10/07 04:17:39;;;;;;;74.10;15.15;;;8.10;99.90;;;;;;4937473;29;20079;-88
2021/10/07 04:20:05;;;;;;;38.97;14.23;;;8.90;99.90;;;;;;4920129;28;20076;-83
2021/10/07 04:23:03;;;;;;;46.08;14.77;;;8.10;99.90;;;;;;4941867;28;20472;-85
2021/10/07 04:25:28;;;;;;;27.85;13.50;;;8.20;99.90;;;;;;4939777;28;20097;-89
2021/10/07 04:27:56;;;;;;;51.05;13.95;;;8.20;99.90;;;;;;4937627;28;20510;-91
2021/10/07 04:30:22;;;;;;;47.28;13.73;;;8.50;99.90;;;;;;4955045;28;20138;-88
2021/10/07 04:32:48;;;;;;;105.35;16.75;;;8.80;99.90;;;;;;4933929;28;20074;-87
2021/10/07 04:35:14;;;;;;;143.77;15.73;;;8.40;99.90;;;;;;4956175;28;20494;-88
2021/10/07 04:37:39;;;;;;;76.25;13.85;;;8.30;99.90;;;;;;4975690;28;20133;-86
2021/10/07 04:40:06;;;;;;;54.83;13.68;;;8.30;99.90;;;;;;4958083;28;20165;-88
2021/10/07 04:42:32;;;;;;;74.97;14.88;;;8.30;99.90;;;;;;4957565;28;20074;-88
2021/10/07 04:44:57;;;;;;;29.92;13.10;;;8.20;99.90;;;;;;4970291;28;20095;-90
2021/10/07 04:47:23;;;;;;;64.68;13.15;;;8.30;99.90;;;;;;4989347;28;20053;-87
2021/10/07 04:49:49;;;;;;;20.15;11.63;;;8.40;99.90;;;;;;4956346;28;20082;-89
2021/10/07 04:52:15;;;;;;;20.95;12.45;;;8.60;99.90;;;;;;4971961;28;20474;-86
2021/10/07 04:54:44;;;;;;;18.20;12.38;;;8.20;99.90;;;;;;4954246;28;20129;-86
2021/10/07 04:57:13;;;;;;;16.95;11.30;;;8.20;99.90;;;;;;4952915;28;20133;-86
2021/10/07 04:59:38;;;;;;;29.92;11.13;;;8.50;99.90;;;;;;4974530;28;20380;-84
2021/10/07 05:02:04;;;;;;;19.02;11.65;;;8.20;99.90;;;;;;4958724;28;20106;-83
2021/10/07 05:04:30;;;;;;;43.67;12.75;;;8.10;99.90;;;;;;4972939;28;20431;-84
2021/10/07 05:06:56;;;;;;;12.30;7.80;;;8.80;99.90;;;;;;4959200;28;20030;-81
2021/10/07 05:09:22;;;;;;;112.97;12.27;;;8.40;99.90;;;;;;4959353;28;20575;-85
2021/10/07 05:11:47;;;;;;;52.47;12.23;;;8.30;99.90;;;;;;4965534;28;20049;-84
2021/10/07 05:14:13;;;;;;;175.57;15.30;;;8.20;99.90;;;;;;4974393;28;20033;-87
2021/10/07 05:16:39;;;;;;;57.28;11.70;;;8.80;99.90;;;;;;4948459;28;20441;-87
2021/10/07 05:19:05;;;;;;;142.55;13.98;;;8.10;99.90;;;;;;4952430;28;20118;-85
2021/10/07 05:21:38;;;;;;;208.70;14.93;;;7.80;99.90;;;;;;4964677;28;20475;-88
2021/10/07 05:24:07;;;;;;;57.17;12.70;;;8.00;99.90;;;;;;4983602;28;20039;-89
2021/10/07 05:27:31;;;;;;;23.77;12.35;;;7.80;99.90;;;;;;4960820;28;20478;-87
2021/10/07 05:30:13;;;;;;;80.95;15.00;;;8.10;99.90;;;;;;4914128;29;20666;-82
2021/10/07 05:32:38;;;;;;;22.65;13.57;;;8.50;99.90;;;;;;4892699;29;20055;-84
2021/10/07 05:35:05;;;;;;;55.80;14.43;;;8.20;99.90;;;;;;4897326;29;20064;-82
2021/10/07 05:37:42;;;;;;;203.07;17.15;;;8.20;99.90;;;;;;4907272;29;20115;-86
2021/10/07 05:44:28;;;;;;;88.97;15.23;;;8.30;99.90;;;;;;4917385;29;20048;-87
2021/10/07 05:50:42;;;;;;;67.20;17.40;;;8.20;99.90;;;;;;4885937;29;20044;-87
2021/10/07 05:53:56;;;;;;;63.22;16.13;;;8.30;99.90;;;;;;4877047;29;20492;-88
2021/10/07 05:56:22;;;;;;;45.22;15.30;;;8.40;99.90;;;;;;4842824;29;20079;-86
2021/10/07 05:58:48;;;;;;;129.35;15.70;;;8.60;99.90;;;;;;4865949;29;20068;-82
2021/10/07 06:01:13;;;;;;;90.10;14.40;;;8.60;99.90;;;;;;4845638;29;20186;-80
2021/10/07 06:03:39;;;;;;;122.57;13.60;;;8.60;99.90;;;;;;4845380;29;20628;-89
2021/10/07 06:06:05;;;;;;;28.45;11.38;;;8.60;99.90;;;;;;4832160;29;20235;-87
2021/10/07 06:08:31;;;;;;;122.35;12.50;;;8.60;99.90;;;;;;4909134;29;20103;-89
2021/10/07 06:10:57;;;;;;;29.17;10.93;;;8.60;99.90;;;;;;4933394;29;20059;-84
2021/10/07 06:13:24;;;;;;;193.73;11.75;;;8.60;99.90;;;;;;4933709;29;20126;-82
2021/10/07 06:15:50;;;;;;;25.15;9.13;;;8.50;99.90;;;;;;4922585;29;20384;-86
2021/10/07 06:18:16;;;;;;;31.05;9.35;;;8.60;99.90;;;;;;4933277;29;20232;-85
2021/10/07 06:20:42;;;;;;;27.60;10.00;;;8.70;99.90;;;;;;4934174;28;20128;-88
2021/10/07 06:23:08;;;;;;;29.52;10.00;;;8.60;99.90;;;;;;4982716;28;20089;-85
2021/10/07 06:25:37;;;;;;;49.67;10.70;;;8.70;99.90;;;;;;4989183;28;20479;-86
2021/10/07 06:28:05;;;;;;;124.40;12.95;;;8.70;99.90;;;;;;4973905;28;20038;-86
2021/10/07 06:30:31;;;;;;;214.25;15.75;;;8.70;99.90;;;;;;4979767;28;20129;-84
2021/10/07 06:32:58;;;;;;;39.58;13.27;;;8.80;99.90;;;;;;4966682;28;20132;-85
2021/10/07 06:36:17;;;;;;;98.15;12.13;;;8.80;99.90;;;;;;4994117;28;20050;-85
2021/10/07 06:38:43;;;;;;;281.27;15.00;;;8.80;99.90;;;;;;4960811;28;20046;-90
2021/10/07 06:41:09;;;;;;;331.00;16.80;;;9.20;99.90;;;;;;4961675;28;20051;-86
2021/10/07 06:43:40;;;;;;;285.75;13.35;;;8.80;99.90;;;;;;4998923;28;20478;-88
2021/10/07 06:46:05;;;;;;;230.07;12.50;;;9.30;99.90;;;;;;4960146;28;20373;-87
2021/10/07 06:48:33;;;;;;;236.35;11.45;;;9.50;99.90;;;;;;4975878;28;20050;-87
2021/10/07 06:50:59;;;;;;;76.10;10.15;;;9.40;99.90;;;;;;4980521;28;20382;-89
2021/10/07 06:53:25;;;;;;;25.10;9.45;;;8.90;99.90;;;;;;4979190;28;20039;-88
2021/10/07 06:55:51;;;;;;;272.27;11.50;;;9.00;99.90;;;;;;4968983;28;20041;-84
2021/10/07 06:58:18;;;;;;;87.95;8.57;;;8.90;99.90;;;;;;4953781;28;20054;-89
2021/10/07 07:00:44;;;;;;;26.98;8.38;;;8.90;99.90;;;;;;4966282;28;20085;-87
2021/10/07 07:03:18;;;;;;;64.43;9.30;;;9.00;99.90;;;;;;4970015;28;20530;-85
2021/10/07 07:05:55;;;;;;;23.67;7.93;;;9.10;99.90;;;;;;4970615;28;20037;-88
2021/10/07 07:08:43;;;;;;;13.80;7.75;;;9.10;99.90;;;;;;4976292;28;20053;-90
2021/10/07 07:11:12;;;;;;;315.95;11.32;;;9.20;99.90;;;;;;4972763;28;20439;-89
2021/10/07 07:13:38;;;;;;;43.55;8.25;;;9.20;99.90;;;;;;4967201;28;20042;-91
2021/10/07 07:16:04;;;;;;;269.90;11.52;;;9.20;99.90;;;;;;4979482;28;20151;-94
2021/10/07 07:18:30;;;;;;;39.92;7.55;;;9.30;99.90;;;;;;4998506;28;20050;-91
2021/10/07 07:20:56;;;;;;;82.07;7.93;;;9.30;99.90;;;;;;4981570;28;20106;-86
2021/10/07 07:23:21;;;;;;;25.40;7.57;;;9.30;99.90;;;;;;4998642;28;20038;-88
2021/10/07 07:25:47;;;;;;;272.38;10.02;;;9.30;99.90;;;;;;5001865;28;20116;-87
2021/10/07 07:28:13;;;;;;;118.07;8.35;;;9.30;99.90;;;;;;4981792;28;20441;-88
2021/10/07 07:30:39;;;;;;;404.02;14.27;;;9.50;99.90;;;;;;4996535;28;20050;-90
2021/10/07 07:33:05;;;;;;;62.95;7.32;;;9.30;99.90;;;;;;4997343;28;20068;-87
2021/10/07 07:35:32;;;;;;;241.77;10.30;;;9.70;99.90;;;;;;5008957;28;20038;-87
2021/10/07 07:38:06;;;;;;;54.50;8.00;;;9.70;99.90;;;;;;4984199;28;20450;-89
2021/10/07 07:40:33;;;;;;;120.20;8.70;;;9.20;99.90;;;;;;4981150;28;20192;-88
2021/10/07 07:43:00;;;;;;;207.77;10.23;;;9.30;99.90;;;;;;4997033;28;20532;-89
2021/10/07 07:45:26;;;;;;;29.90;6.95;;;9.40;99.90;;;;;;4996738;28;20049;-88
2021/10/07 07:47:52;;;;;;;19.23;8.00;;;9.50;99.90;;;;;;4979519;28;20132;-85
2021/10/07 07:50:19;;;;;;;25.15;6.88;;;9.50;99.90;;;;;;4994080;28;20042;-89
2021/10/07 07:52:48;;;;;;;78.78;8.88;;;10.20;99.90;;;;;;5004252;28;20057;-87
2021/10/07 07:55:15;;;;;;;148.98;8.80;;;9.70;99.90;;;;;;4982876;28;20154;-83
2021/10/07 07:57:41;;;;;;;52.15;7.63;;;9.70;99.90;;;;;;4993868;28;20132;-83
2021/10/07 08:00:08;;;;;;;60.95;7.95;;;9.60;99.90;;;;;;4979256;28;20556;-88
2021/10/07 08:02:34;;;;;;;114.18;9.52;;;9.70;99.90;;;;;;4963554;28;20057;-89
2021/10/07 08:05:40;;;;;;;150.25;11.32;;;9.70;99.90;;;;;;4987883;28;20409;-84
2021/10/07 08:08:05;;;;;;;48.22;7.40;;;9.60;99.90;;;;;;4931496;29;20047;-83
2021/10/07 08:10:32;;;;;;;60.40;8.00;;;10.30;99.90;;;;;;4915555;29;20361;-83
2021/10/07 08:13:00;;;;;;;79.32;8.85;;;9.90;99.90;;;;;;4932225;29;20059;-84
2021/10/07 08:15:25;;;;;;;105.05;9.07;;;9.90;99.90;;;;;;4907594;29;20071;-82
2021/10/07 08:17:52;;;;;;;17.90;8.20;;;10.00;99.90;;;;;;4915543;29;20422;-81
2021/10/07 08:20:18;;;;;;;13.07;8.45;;;10.00;99.90;;;;;;4913115;28;20511;-83
2021/10/07 08:22:46;;;;;;;69.45;8.80;;;10.00;99.90;;;;;;4929929;29;20565;-82
2021/10/07 08:25:30;;;;;;;44.45;8.50;;;10.10;99.90;;;;;;4916539;29;20510;-83
2021/10/07 08:27:55;;;;;;;142.68;8.95;;;10.20;99.90;;;;;;4914855;29;20059;-80
2021/10/07 08:30:21;;;;;;;94.40;10.02;;;10.20;99.90;;;;;;4914902;29;20052;-80
2021/10/07 08:32:50;;;;;;;18.90;8.05;;;10.20;99.90;;;;;;4913327;29;20146;-81
2021/10/07 08:35:16;;;;;;;26.33;7.10;;;10.40;99.90;;;;;;4929048;29;20087;-82
2021/10/07 08:37:41;;;;;;;19.00;7.57;;;10.80;99.90;;;;;;4936254;28;20240;-84
2021/10/07 08:40:10;;;;;;;12.57;7.28;;;10.60;99.90;;;;;;4997535;28;20481;-83
2021/10/07 08:42:40;;;;;;;4.25;2.38;;;10.70;99.90;;;;;;4983027;28;20046;-78
2021/10/07 08:45:07;;;;;;;8.77;4.57;;;11.20;99.90;;;;;;4991468;28;20195;-79
2021/10/07 08:47:40;;;;;;;10.38;2.92;;;12.20;99.90;;;;;;4991475;28;20042;-80
2021/10/07 08:50:09;;;;;;;5.55;3.00;;;12.70;99.90;;;;;;4990960;28;20108;-80
2021/10/07 08:52:35;;;;;;;8.30;3.00;;;13.40;99.90;;;;;;4990130;28;20046;-82
2021/10/07 08:55:01;;;;;;;5.07;2.50;;;13.80;99.90;;;;;;4989799;28;20137;-82
2021/10/07 08:57:27;;;;;;;5.20;4.70;;;14.20;99.90;;;;;;4975866;28;20177;-79
2021/10/07 08:59:53;;;;;;;8.32;5.03;;;14.30;99.90;;;;;;4990466;28;20140;-79
2021/10/07 09:02:33;;;;;;;4.05;3.15;;;14.10;99.90;;;;;;4990464;28;20482;-79
2021/10/07 09:05:08;;;;;;;5.22;2.70;;;14.30;99.90;;;;;;4971049;28;20192;-80
2021/10/07 09:07:33;;;;;;;;;;;14.60;99.90;;;;;;4967119;28;20114;-78
2021/10/07 09:09:59;;;;;;;7.82;3.30;;;14.60;99.90;;;;;;4976952;28;20364;-77
2021/10/07 09:12:26;;;;;;;12.88;5.43;;;14.90;99.90;;;;;;5000798;28;20042;-79
2021/10/07 09:14:51;;;;;;;9.48;4.60;;;14.60;99.90;;;;;;4992803;28;20061;-78
2021/10/07 09:17:19;;;;;;;4.70;3.60;;;14.60;99.90;;;;;;4976878;28;20485;-83
2021/10/07 09:19:49;;;;;;;7.53;4.35;;;14.70;99.90;;;;;;4983950;28;20045;-79
2021/10/07 09:22:19;;;;;;;25.55;5.85;;;14.80;99.90;;;;;;4991541;28;20045;-76
2021/10/07 09:24:52;;;;;;;4.15;3.50;;;14.30;99.90;;;;;;5006938;28;20635;-77
2021/10/07 09:27:22;;;;;;;11.57;5.50;;;14.70;99.90;;;;;;4992946;28;20053;-79
2021/10/07 09:29:58;;;;;;;15.20;4.50;;;14.50;99.90;;;;;;4979555;28;20148;-79
2021/10/07 09:32:28;;;;;;;3.20;2.90;;;14.30;99.90;;;;;;4974479;28;20062;-79
2021/10/07 09:34:55;;;;;;;3.35;3.05;;;14.70;99.90;;;;;;4959290;28;20085;-81
2021/10/07 09:37:25;;;;;;;4.43;4.03;;;15.10;99.90;;;;;;4989605;28;20117;-82
2021/10/07 09:40:01;;;;;;;11.25;4.95;;;14.90;99.90;;;;;;5006321;28;20058;-85
2021/10/07 09:42:34;;;;;;;7.13;5.78;;;14.80;99.90;;;;;;4964857;28;20046;-79
2021/10/07 09:45:08;;;;;;;4.95;3.60;;;14.80;99.90;;;;;;4990678;28;20540;-77
2021/10/07 09:47:36;;;;;;;3.20;2.90;;;14.90;99.90;;;;;;4973447;28;20048;-79
2021/10/07 09:50:10;;;;;;;6.72;3.40;;;15.20;99.90;;;;;;4990848;28;20044;-78
2021/10/07 09:52:37;;;;;;;7.32;4.75;;;15.30;99.90;;;;;;4975687;28;20410;-81
2021/10/07 09:55:32;;;;;;;13.63;4.25;;;15.10;99.90;;;;;;4992399;28;20497;-80
2021/10/07 09:58:00;;;;;;;8.60;4.13;;;15.00;99.90;;;;;;4980024;28;20073;-82
2021/10/07 10:00:30;;;;;;;5.43;2.70;;;15.20;99.90;;;;;;4990465;28;20053;-81
2021/10/07 10:02:58;;;;;;;9.45;4.70;;;15.30;99.90;;;;;;4989237;28;20132;-78
2021/10/07 10:05:24;;;;;;;4.88;3.40;;;15.30;99.90;;;;;;4992347;28;20058;-78
2021/10/07 10:07:51;;;;;;;8.98;8.00;;;15.20;99.90;;;;;;4992175;28;20072;-83
2021/10/07 10:10:18;;;;;;;9.15;8.25;;;14.60;99.90;;;;;;5007429;28;20049;-83
2021/10/07 10:12:44;;;;;;;10.07;8.95;;;14.10;99.90;;;;;;4985296;28;20056;-85
2021/10/07 10:15:11;;;;;;;10.93;9.48;;;13.90;99.90;;;;;;4990689;28;20076;-83
2021/10/07 10:17:37;;;;;;;10.52;9.05;;;13.60;99.90;;;;;;4975598;28;20080;-84
2021/10/07 10:20:18;;;;;;;15.55;10.43;;;13.50;99.90;;;;;;4988239;28;20050;-82
2021/10/07 10:22:50;;;;;;;14.10;9.88;;;13.20;99.90;;;;;;4980232;28;20042;-83
2021/10/07 10:25:16;;;;;;;12.82;10.10;;;13.60;99.90;;;;;;4959946;28;20413;-81
2021/10/07 10:27:47;;;;;;;12.50;10.68;;;13.30;99.90;;;;;;4976941;28;20054;-84
2021/10/07 10:30:28;;;;;;;12.98;11.25;;;13.20;99.90;;;;;;4980241;28;20120;-84
2021/10/07 10:32:57;;;;;;;11.73;10.18;;;13.10;99.90;;;;;;4989943;28;20050;-84
2021/10/07 10:35:40;;;;;;;12.38;10.55;;;12.80;99.90;;;;;;4980216;28;20473;-83
2021/10/07 10:38:10;;;;;;;13.07;11.40;;;13.00;99.90;;;;;;4973777;28;20426;-83
2021/10/07 10:44:36;;;;;;;13.30;11.40;;;12.90;99.90;;;;;;4981043;28;20105;-85
2021/10/07 10:47:07;;;;;;;14.10;11.48;;;13.10;99.90;;;;;;4942152;28;20059;-83
2021/10/07 10:49:51;;;;;;;14.27;11.75;;;13.10;99.90;;;;;;4956952;28;20086;-84
2021/10/07 10:52:36;;;;;;;16.52;12.18;;;13.20;99.90;;;;;;4977680;28;20124;-82
2021/10/07 10:55:10;;;;;;;15.85;12.57;;;13.40;99.90;;;;;;5008110;28;20050;-82
2021/10/07 10:57:38;;;;;;;;;;;13.50;99.90;;;;;;4962102;28;20049;-83
2021/10/07 11:00:14;;;;;;;15.10;12.38;;;13.40;99.90;;;;;;4995635;28;20004;-82
2021/10/07 11:02:47;;;;;;;15.43;11.95;;;13.40;99.90;;;;;;4947325;28;20142;-82
2021/10/07 11:05:19;;;;;;;16.40;13.65;;;13.50;99.90;;;;;;4958412;28;20053;-81
2021/10/07 11:07:46;;;;;;;17.27;13.48;;;13.60;99.90;;;;;;4977238;28;20129;-82
2021/10/07 11:10:14;;;;;;;17.00;13.00;;;13.70;99.90;;;;;;4977523;28;20135;-81
2021/10/07 11:12:49;;;;;;;16.13;13.20;;;13.60;99.90;;;;;;4959938;28;20050;-82
2021/10/07 11:15:16;;;;;;;;;;;13.40;99.90;;;;;;4977461;28;20068;-81
2021/10/07 11:17:44;;;;;;;15.95;13.48;;;13.40;99.90;;;;;;4977171;28;19918;-81
2021/10/07 11:20:13;;;;;;;17.33;13.40;;;13.60;99.90;;;;;;4976840;28;20470;-81
2021/10/07 11:22:40;;;;;;;16.63;12.90;;;13.70;99.90;;;;;;4991106;28;20505;-81
2021/10/07 11:25:06;;;;;;;14.95;12.43;;;14.10;99.90;;;;;;4956779;28;20078;-82
2021/10/07 11:27:41;;;;;;;16.00;13.15;;;13.90;99.90;;;;;;4965262;28;20042;-81
2021/10/07 11:30:14;;;;;;;15.70;12.88;;;14.00;99.90;;;;;;4995017;28;20442;-82
2021/10/07 11:32:41;;;;;;;16.48;12.77;;;14.10;99.90;;;;;;4995189;28;20113;-81
2021/10/07 11:35:09;;;;;;;15.88;13.70;;;14.30;99.90;;;;;;4977376;28;20610;-82
2021/10/07 11:37:58;;;;;;;16.95;14.07;;;14.20;99.90;;;;;;4967606;28;20070;-83
2021/10/07 11:40:27;;;;;;;14.98;12.85;;;14.20;99.90;;;;;;4970081;28;20055;-82
2021/10/07 11:42:55;;;;;;;16.45;14.02;;;14.30;99.90;;;;;;4965984;28;20057;-83
2021/10/07 11:45:31;;;;;;;16.52;13.85;;;14.30;99.90;;;;;;4977341;28;20061;-82
2021/10/07 11:48:07;;;;;;;16.48;13.05;;;14.20;99.90;;;;;;4951733;28;20046;-81
2021/10/07 11:50:37;;;;;;;16.55;13.40;;;14.20;99.90;;;;;;4950943;28;20128;-82
2021/10/07 11:53:03;;;;;;;15.75;13.10;;;14.20;99.90;;;;;;4973339;28;20383;-81
2021/10/07 11:55:28;;;;;;;17.30;13.38;;;14.20;99.90;;;;;;4958376;28;20061;-82
2021/10/07 11:58:00;;;;;;;17.85;14.20;;;14.30;99.90;;;;;;4958021;28;20042;-83
2021/10/07 12:00:38;;;;;;;16.30;14.13;;;14.20;99.90;;;;;;4992176;28;20042;-83
2021/10/07 12:03:12;;;;;;;18.65;14.80;;;14.10;99.90;;;;;;4972877;28;20051;-81
2021/10/07 12:05:38;;;;;;;16.65;14.48;;;13.90;99.90;;;;;;4990117;28;20058;-82
2021/10/07 12:08:07;;;;;;;17.35;14.20;;;14.00;99.90;;;;;;4955554;28;20047;-82
2021/10/07 12:10:47;;;;;;;17.92;13.70;;;14.10;99.90;;;;;;4989589;28;20053;-82
2021/10/07 12:13:18;;;;;;;16.95;13.88;;;14.20;99.90;;;;;;4976029;28;20129;-83
2021/10/07 12:15:50;;;;;;;16.58;14.32;;;14.50;99.90;;;;;;4972042;28;20132;-82
2021/10/07 12:18:17;;;;;;;17.15;13.63;;;14.40;99.90;;;;;;4954500;28;20101;-84
2021/10/07 12:21:05;;;;;;;18.90;13.75;;;14.60;99.90;;;;;;4969441;28;20141;-83
2021/10/07 12:23:44;;;;;;;17.50;14.15;;;14.50;99.90;;;;;;4996014;28;20480;-85
2021/10/07 12:26:56;;;;;;;16.20;14.18;;;14.50;99.90;;;;;;4976816;28;20049;-83
2021/10/07 12:29:27;;;;;;;17.63;14.23;;;14.50;99.90;;;;;;5009084;28;20465;-83
2021/10/07 12:32:12;;;;;;;16.98;13.95;;;14.60;99.90;;;;;;4984568;28;20054;-84
2021/10/07 12:34:40;;;;;;;16.85;14.20;;;15.00;99.90;;;;;;4972348;28;20054;-82
2021/10/07 12:37:10;;;;;;;14.38;12.77;;;15.40;99.90;;;;;;4994016;28;20056;-82
2021/10/07 12:39:38;;;;;;;14.50;12.88;;;15.80;99.90;;;;;;5011113;28;20088;-82
2021/10/07 12:42:08;;;;;;;15.40;13.43;;;15.90;99.90;;;;;;4980045;28;20068;-82
2021/10/07 12:44:36;;;;;;;14.98;12.85;;;15.90;99.90;;;;;;4991065;28;20037;-82
2021/10/07 12:47:08;;;;;;;16.17;13.52;;;15.70;99.90;;;;;;4993689;28;20121;-82
2021/10/07 12:49:36;;;;;;;16.05;13.65;;;15.30;99.90;;;;;;4991562;28;20041;-82
2021/10/07 12:52:14;;;;;;;19.48;14.20;;;15.60;99.90;;;;;;4993966;28;20058;-82
2021/10/07 12:54:39;;;;;;;15.20;12.55;;;15.20;99.90;;;;;;4990076;28;20149;-82
2021/10/07 12:57:05;;;;;;;15.52;12.85;;;15.10;99.90;;;;;;4992773;28;20053;-81
2021/10/07 12:59:54;;;;;;;15.40;13.25;;;14.80;99.90;;;;;;4992464;28;20042;-81
2021/10/07 13:02:31;;;;;;;16.80;13.15;;;14.80;99.90;;;;;;4991973;28;20038;-81
2021/10/07 13:04:57;;;;;;;15.50;13.25;;;14.80;99.90;;;;;;4992430;28;20045;-81
2021/10/07 13:07:25;;;;;;;15.15;13.25;;;14.80;99.90;;;;;;4978131;28;20037;-79
2021/10/07 13:09:51;;;;;;;17.05;13.75;;;14.80;99.90;;;;;;5015334;28;20505;-79
2021/10/07 13:12:18;;;;;;;16.35;13.73;;;14.80;99.90;;;;;;4979067;28;20517;-82
2021/10/07 13:14:55;;;;;;;17.25;12.88;;;15.10;99.90;;;;;;4979393;28;20081;-81
2021/10/07 13:17:20;;;;;;;14.90;12.68;;;15.20;99.90;;;;;;5012894;28;20052;-79
2021/10/07 13:19:46;;;;;;;15.02;12.98;;;15.40;99.90;;;;;;5008446;28;20049;-81
2021/10/07 13:22:12;;;;;;;16.00;13.45;;;15.30;99.90;;;;;;4985473;28;20843;-82